Change the Weather History Date:

Wednesday, April 23, 2014

  Actual Average Record
Temperature  
Mean Temperature 50 °F -  
Max Temperature 59 °F 67 °F 86 °F (1980)
Min Temperature 41 °F 45 °F 31 °F (1956)
Degree Days  
Heating Degree Days 15    
Moisture  
Dew Point 33 °F    
Average Humidity 50    
Maximum Humidity 70    
Minimum Humidity 36    
Precipitation  
Precipitation 0.00 in - - ()
Sea Level Pressure  
Sea Level Pressure 30.03 in    
Wind  
Wind Speed 10 mph (ESE)    
Max Wind Speed 18 mph    
Max Gust Speed 26 mph    
Visibility 10 miles    
Events      
Averages and records for this station are not official NWS values.
T = Trace of Precipitation, MM = Missing Value Source: NWS Daily Summary

Daily Weather History Graph

Daily Weather History Graph

Search for Another Location

Airport or City:

Trip Planner

Search our weather history database for the weather conditions in past years. The results will help you decide how hot, cold, wet, or windy it might be!

Date:

Astronomy

Apr. 23, 2014 Rise Set
Actual Time 6:15 AM CDT 7:53 PM CDT
Civil Twilight 5:46 AM CDT 8:22 PM CDT
Nautical Twilight 5:11 AM CDT 8:57 PM CDT
Astronomical Twilight 4:34 AM CDT 9:34 PM CDT
Moon 2:48 AM CDT (4/23) 2:00 PM CDT (4/23)
Length of Visible Light 14h 35m
Length of Day
13h 37m
Waning Crescent, 34% of the Moon is Illuminated
Apr 23
Waning Crescent
Apr 29
New
May 6
First Quarter
May 14
Full
May 21
Last Quarter

Hourly Weather History & Observations

Time (CDT) Temp. Windchill Dew Point Humidity Pressure Visibility Wind Dir Wind Speed Gust Speed Precip Events Conditions
12:15 AM 51.8 °F - 32.0 °F 47% 30.05 in 10.0 mi North 4.6 mph - N/A   Clear
12:35 AM 51.8 °F - 32.0 °F 47% 30.05 in 10.0 mi NNE 5.8 mph - N/A   Clear
12:55 AM 51.8 °F - 32.0 °F 47% 30.05 in 10.0 mi NNE 3.5 mph - N/A   Scattered Clouds
1:15 AM 50.0 °F - 32.0 °F 50% 30.05 in 10.0 mi NE 3.5 mph - N/A   Partly Cloudy
1:35 AM 50.0 °F - 32.0 °F 50% 30.05 in 10.0 mi Calm Calm - N/A   Clear
1:55 AM 50.0 °F - 32.0 °F 50% 30.05 in 10.0 mi ENE 4.6 mph - N/A   Clear
2:15 AM 50.0 °F - 32.0 °F 50% 30.05 in 10.0 mi ENE 4.6 mph - N/A   Clear
2:35 AM 48.2 °F - 32.0 °F 54% 30.05 in 10.0 mi ENE 4.6 mph - N/A   Partly Cloudy
2:55 AM 48.2 °F - 32.0 °F 54% 30.05 in 10.0 mi ENE 5.8 mph - N/A   Partly Cloudy
3:15 AM 48.2 °F - 32.0 °F 54% 30.05 in 10.0 mi ENE 6.9 mph - N/A   Clear
3:35 AM 48.2 °F - 32.0 °F 54% 30.05 in 10.0 mi East 11.5 mph - N/A   Mostly Cloudy
3:55 AM 48.2 °F - 32.0 °F 54% 30.06 in 10.0 mi East 13.8 mph - N/A   Overcast
4:15 AM 46.4 °F 40.4 °F 32.0 °F 57% 30.06 in 10.0 mi East 13.8 mph - N/A   Overcast
4:35 AM 46.4 °F 39.8 °F 33.8 °F 62% 30.06 in 10.0 mi East 16.1 mph - N/A   Overcast
4:55 AM 44.6 °F 38.1 °F 33.8 °F 66% 30.07 in 10.0 mi ESE 13.8 mph 20.7 mph N/A   Scattered Clouds
5:15 AM 42.8 °F 36.6 °F 33.8 °F 70% 30.08 in 10.0 mi ESE 11.5 mph 20.7 mph N/A   Mostly Cloudy
5:35 AM 42.8 °F 36.6 °F 32.0 °F 66% 30.10 in 10.0 mi ESE 11.5 mph 18.4 mph N/A   Scattered Clouds
5:55 AM 41.0 °F 33.5 °F 32.0 °F 70% 30.10 in 10.0 mi East 13.8 mph - N/A   Clear
6:15 AM 41.0 °F 32.8 °F 32.0 °F 70% 30.08 in 10.0 mi East 16.1 mph - N/A   Clear
6:35 AM 41.0 °F 34.3 °F 32.0 °F 70% 30.11 in 10.0 mi ESE 11.5 mph 17.3 mph N/A   Clear
6:55 AM 41.0 °F 36.4 °F 32.0 °F 70% 30.13 in 10.0 mi ESE 6.9 mph - N/A   Clear
7:15 AM 42.8 °F 38.0 °F 32.0 °F 66% 30.14 in 10.0 mi East 8.1 mph - N/A   Clear
7:35 AM 42.8 °F 35.8 °F 32.0 °F 66% 30.12 in 10.0 mi East 13.8 mph - N/A   Partly Cloudy
7:55 AM 44.6 °F 38.1 °F 32.0 °F 61% 30.13 in 10.0 mi East 13.8 mph - N/A   Mostly Cloudy
8:15 AM 44.6 °F 37.4 °F 32.0 °F 61% 30.13 in 10.0 mi ESE 16.1 mph - N/A   Mostly Cloudy
8:35 AM 44.6 °F 38.4 °F 32.0 °F 61% 30.13 in 10.0 mi ESE 12.7 mph 20.7 mph N/A   Overcast
8:55 AM 44.6 °F 38.4 °F 32.0 °F 61% 30.14 in 10.0 mi ESE 12.7 mph - N/A   Mostly Cloudy
9:15 AM 46.4 °F 41.9 °F 32.0 °F 57% 30.15 in 10.0 mi ESE 9.2 mph - N/A   Mostly Cloudy
9:35 AM 48.2 °F - 33.8 °F 58% 30.14 in 10.0 mi ESE 11.5 mph - N/A   Scattered Clouds
9:55 AM 50.0 °F - 33.8 °F 54% 30.13 in 10.0 mi ESE 10.4 mph - N/A   Partly Cloudy
10:15 AM 51.8 °F - 33.8 °F 50% 30.12 in 10.0 mi East 13.8 mph - N/A   Scattered Clouds
10:35 AM 50.0 °F - 32.0 °F 50% 30.12 in 10.0 mi ESE 11.5 mph - N/A   Mostly Cloudy
10:55 AM 51.8 °F - 33.8 °F 50% 30.13 in 10.0 mi East 11.5 mph - N/A   Scattered Clouds
11:15 AM 51.8 °F - 32.0 °F 47% 30.12 in 10.0 mi ESE 15.0 mph - N/A   Scattered Clouds
11:35 AM 51.8 °F - 32.0 °F 47% 30.12 in 10.0 mi ESE 11.5 mph - N/A   Mostly Cloudy
11:55 AM 51.8 °F - 32.0 °F 47% 30.11 in 10.0 mi ESE 8.1 mph 15.0 mph N/A   Overcast
12:15 PM 51.8 °F - 32.0 °F 47% 30.10 in 10.0 mi ESE 11.5 mph - N/A   Mostly Cloudy
12:35 PM 53.6 °F - 32.0 °F 44% 30.09 in 10.0 mi ESE 11.5 mph - N/A   Scattered Clouds
1:15 PM 55.4 °F - 33.8 °F 44% 30.06 in 10.0 mi ESE 16.1 mph - N/A   Clear
1:35 PM 57.2 °F - 33.8 °F 41% 30.05 in 10.0 mi ESE 15.0 mph - N/A   Partly Cloudy
1:55 PM 57.2 °F - 33.8 °F 41% 30.04 in 10.0 mi ESE 15.0 mph 20.7 mph N/A   Partly Cloudy
2:15 PM 57.2 °F - 33.8 °F 41% 30.04 in 10.0 mi ESE 9.2 mph 19.6 mph N/A   Partly Cloudy
2:55 PM 57.2 °F - 32.0 °F 38% 30.02 in 10.0 mi ESE 12.7 mph - N/A   Mostly Cloudy
3:15 PM 57.2 °F - 33.8 °F 41% 30.02 in 10.0 mi East 12.7 mph - N/A   Overcast
3:35 PM 55.4 °F - 35.6 °F 47% 30.03 in 10.0 mi East 10.4 mph - N/A   Mostly Cloudy
3:55 PM 53.6 °F - 37.4 °F 54% 30.01 in 10.0 mi East 12.7 mph - N/A   Mostly Cloudy
4:15 PM 55.4 °F - 39.2 °F 54% 30.00 in 10.0 mi East 16.1 mph - N/A   Mostly Cloudy
4:35 PM 57.2 °F - 37.4 °F 48% 30.00 in 10.0 mi East 11.5 mph - N/A   Scattered Clouds
4:55 PM 57.2 °F - 37.4 °F 48% 29.98 in 10.0 mi East 15.0 mph - N/A   Scattered Clouds
5:15 PM 57.2 °F - 35.6 °F 44% 29.99 in 10.0 mi ESE 12.7 mph - N/A   Mostly Cloudy
5:35 PM 57.2 °F - 35.6 °F 44% 30.00 in 10.0 mi East 10.4 mph - N/A   Mostly Cloudy
5:55 PM 59.0 °F - 33.8 °F 39% 29.97 in 10.0 mi ESE 18.4 mph - N/A   Mostly Cloudy
6:15 PM 59.0 °F - 33.8 °F 39% 29.96 in 10.0 mi ESE 13.8 mph - N/A   Clear
6:35 PM 59.0 °F - 33.8 °F 39% 29.94 in 10.0 mi ESE 13.8 mph 21.9 mph N/A   Clear
6:55 PM 59.0 °F - 32.0 °F 36% 29.93 in 3.0 mi ESE 17.3 mph 26.5 mph N/A   Haze
7:15 PM 57.2 °F - 32.0 °F 38% 29.93 in 10.0 mi SE 13.8 mph - N/A   Scattered Clouds
7:35 PM 57.2 °F - 32.0 °F 38% 29.93 in 10.0 mi SE 11.5 mph 20.7 mph N/A   Mostly Cloudy
7:55 PM 57.2 °F - 32.0 °F 38% 29.92 in 10.0 mi ESE 16.1 mph - N/A   Mostly Cloudy
8:15 PM 57.2 °F - 30.2 °F 36% 29.91 in 10.0 mi ESE 16.1 mph 21.9 mph N/A   Mostly Cloudy
8:35 PM 57.2 °F - 30.2 °F 36% 29.90 in 10.0 mi ESE 17.3 mph - N/A   Overcast
8:55 PM 57.2 °F - 30.2 °F 36% 29.89 in 10.0 mi ESE 17.3 mph 23.0 mph N/A   Mostly Cloudy
9:15 PM 55.4 °F - 30.2 °F 38% 29.89 in 10.0 mi SE 17.3 mph 23.0 mph N/A   Clear
9:55 PM 55.4 °F - 30.2 °F 38% 29.89 in 10.0 mi ESE 15.0 mph 23.0 mph N/A   Clear
10:15 PM 55.4 °F - 30.2 °F 38% 29.88 in 10.0 mi SE 16.1 mph 25.3 mph N/A   Clear
10:35 PM 55.4 °F - 30.2 °F 38% 29.88 in 10.0 mi SE 16.1 mph 23.0 mph N/A   Clear
10:55 PM 53.6 °F - 30.2 °F 41% 29.87 in 10.0 mi SE 12.7 mph 23.0 mph N/A   Clear
11:15 PM 53.6 °F - 32.0 °F 44% 29.88 in 10.0 mi ESE 13.8 mph - N/A   Clear
11:35 PM 53.6 °F - 32.0 °F 44% 29.88 in 10.0 mi ESE 13.8 mph - N/A   Clear
11:55 PM 53.6 °F - 32.0 °F 44% 29.86 in 10.0 mi ESE 13.8 mph 21.9 mph N/A   Clear